Woody Richerson — WDF9621 — position and weather

sailwx.info

Track history (hours):
 
Tides and Currents Weather Stations Pressure Air Temp Water Temp Dewpoint Dewpoint Depression Visibility Wind Speed Wind Dir Waves Ship Positions

Woody Richerson

Owner: Florida Marine, LLC, Mandeville, LA. More information available from US FCC via Universal Licensing System and Coast Guard Vessel Documentation Center.

Last reported at 2015-Aug-29 21:09 UTC. Time now 2015-Aug-30 03:36 UTC.
Position N 29°55' W 090°05'.

Length 27 m.

Type: Other ship. MMSI: 367507070.

Date/timePositionNaut miles runAvg speedWind from/ knotsBaromVisibWave heightAir tempDewpointWater temp
2015-Aug-29 21:09N 29°55' W 090°05'  
2015-Aug-26 03:16N 29°38' W 090°21'4 4.8
2015-Aug-26 02:25N 29°34' W 090°23'2 1.7
2015-Aug-26 01:15N 29°33' W 090°25'2 2.7
2015-Aug-26 00:30N 29°33' W 090°27'5 4.8
2015-Aug-25 23:33N 29°34' W 090°33'4 4.4
2015-Aug-25 22:33N 29°35' W 090°37'4 4.1
2015-Aug-25 21:33N 29°37' W 090°42'3 3.0
2015-Aug-25 20:34N 29°34' W 090°43'4 4.5
2015-Aug-25 19:33N 29°32' W 090°48'  
Track history (hours):
 
Tides and Currents Weather Stations Pressure Air Temp Water Temp Dewpoint Dewpoint Depression Visibility Wind Speed Wind Dir Waves Ship Positions

Woody Richerson

Owner: Florida Marine, LLC, Mandeville, LA. More information available from US FCC via Universal Licensing System and Coast Guard Vessel Documentation Center.

Last reported at 2015-Aug-29 21:09 UTC. Time now 2015-Aug-30 03:36 UTC.
Position N 29°55' W 090°05'.

Length 27 m.

Type: Other ship. MMSI: 367507070.

Date/timePositionNaut miles runAvg speedWind from/ knotsBaromVisibWave heightAir tempDewpointWater temp
2015-Aug-29 21:09N 29°55' W 090°05'  
2015-Aug-26 03:16N 29°38' W 090°21'4 4.8
2015-Aug-26 02:25N 29°34' W 090°23'2 1.7
2015-Aug-26 01:15N 29°33' W 090°25'2 2.7
2015-Aug-26 00:30N 29°33' W 090°27'5 4.8
2015-Aug-25 23:33N 29°34' W 090°33'4 4.4
2015-Aug-25 22:33N 29°35' W 090°37'4 4.1
2015-Aug-25 21:33N 29°37' W 090°42'3 3.0
2015-Aug-25 20:34N 29°34' W 090°43'4 4.5
2015-Aug-25 19:33N 29°32' W 090°48'  

Dump ship's entire track history